createdAt,value
2018-06-11T00:02:19.837Z,101511.11
2018-06-11T00:04:49.209Z,101503.43
2018-06-11T00:07:18.247Z,101496.47
2018-06-11T00:09:47.255Z,101508.36
2018-06-11T00:12:16.307Z,101497.86
2018-06-11T00:14:45.513Z,101500.57
2018-06-11T00:17:14.540Z,101489.58
2018-06-11T00:19:43.590Z,101498.45
2018-06-11T00:22:12.611Z,101481.47
2018-06-11T00:24:47.079Z,101494.89
2018-06-11T00:27:16.167Z,101494.30
2018-06-11T00:29:45.259Z,101483.95
2018-06-11T00:32:14.289Z,101493.80
2018-06-11T00:34:43.353Z,101488.31
2018-06-11T00:37:12.363Z,101476.83
2018-06-11T00:39:41.391Z,101474.31
2018-06-11T00:42:10.419Z,101469.30
2018-06-11T00:44:39.409Z,101457.14
2018-06-11T00:47:08.422Z,101458.49
2018-06-11T00:49:37.416Z,101452.31
2018-06-11T00:52:06.443Z,101442.05
2018-06-11T00:54:35.573Z,101438.30
2018-06-11T00:57:04.690Z,101422.77
2018-06-11T00:59:33.949Z,101414.94
2018-06-11T01:02:03.017Z,101414.30
2018-06-11T01:04:32.079Z,101415.06
2018-06-11T01:07:01.109Z,101418.89
2018-06-11T01:09:30.143Z,101416.02
2018-06-11T01:11:59.131Z,101410.44
2018-06-11T01:14:28.181Z,101417.88
2018-06-11T01:16:57.263Z,101418.73
2018-06-11T01:19:26.324Z,101426.64
2018-06-11T01:21:55.410Z,101427.41
2018-06-11T01:24:24.401Z,101431.20
2018-06-11T01:26:53.436Z,101431.44
2018-06-11T01:29:22.432Z,101438.20
2018-06-11T01:31:51.478Z,101440.50
2018-06-11T01:34:20.489Z,101443.81
2018-06-11T01:36:49.527Z,101444.58
2018-06-11T01:39:18.528Z,101445.64
2018-06-11T01:41:47.708Z,101441.19
2018-06-11T01:44:16.716Z,101430.52
2018-06-11T01:46:45.717Z,101426.64
2018-06-11T01:49:14.742Z,101423.55
2018-06-11T01:51:43.759Z,101424.44
2018-06-11T01:54:12.792Z,101414.10
2018-06-11T01:56:41.863Z,101411.20
2018-06-11T01:59:10.948Z,101408.09
2018-06-11T02:01:39.936Z,101406.46
2018-06-11T02:04:08.916Z,101407.31
2018-06-11T02:06:38.036Z,101409.42
2018-06-11T02:09:08.279Z,101423.34
2018-06-11T02:11:37.298Z,101423.54
2018-06-11T02:14:06.389Z,101430.11
2018-06-11T02:16:35.400Z,101430.88
2018-06-11T02:19:04.436Z,101438.63
2018-06-11T02:21:33.456Z,101445.56
2018-06-11T02:24:02.500Z,101447.88
2018-06-11T02:26:31.504Z,101449.22
2018-06-11T02:29:02.166Z,101446.73
2018-06-11T02:31:32.948Z,101440.53
2018-06-11T02:34:02.352Z,101441.11
2018-06-11T02:36:31.388Z,101441.78
2018-06-11T02:39:00.457Z,101442.86
2018-06-11T02:41:29.538Z,101442.28
2018-06-11T02:43:58.865Z,101440.16
2018-06-11T02:46:29.408Z,101442.28
2018-06-11T02:48:58.488Z,101430.31
2018-06-11T02:51:27.553Z,101422.23
2018-06-11T02:53:57.130Z,101422.59
2018-06-11T02:56:26.197Z,101424.05
2018-06-11T02:58:55.179Z,101421.83
2018-06-11T03:01:24.310Z,101420.20
2018-06-11T03:03:53.350Z,101412.23
2018-06-11T03:06:22.417Z,101412.19
2018-06-11T03:08:51.923Z,101410.84
2018-06-11T03:11:21.972Z,101405.63
2018-06-11T03:13:51.146Z,101409.59
2018-06-11T03:16:20.312Z,101410.53
2018-06-11T03:18:49.708Z,101409.54
2018-06-11T03:21:19.648Z,101402.20
2018-06-11T03:23:50.337Z,101395.59
2018-06-11T03:26:19.404Z,101403.31
2018-06-11T03:28:48.456Z,101404.86
2018-06-11T03:31:18.086Z,101404.67
2018-06-11T03:33:47.137Z,101406.80
2018-06-11T03:36:16.200Z,101397.25
2018-06-11T03:38:46.100Z,101387.26
2018-06-11T03:41:15.234Z,101391.03
2018-06-11T03:43:44.311Z,101390.83
2018-06-11T03:46:13.402Z,101383.80
2018-06-11T03:48:42.471Z,101383.92
2018-06-11T03:51:12.416Z,101389.38
2018-06-11T03:53:41.556Z,101391.53
2018-06-11T03:56:11.501Z,101388.16
2018-06-11T03:58:42.171Z,101386.30
2018-06-11T04:01:11.326Z,101386.75
2018-06-11T04:03:40.864Z,101395.25
2018-06-11T04:06:10.089Z,101398.65
2018-06-11T04:08:39.330Z,101395.00
2018-06-11T04:11:08.489Z,101399.64
2018-06-11T04:13:37.680Z,101396.23
2018-06-11T04:16:06.962Z,101401.74
2018-06-11T04:18:36.222Z,101404.22
2018-06-11T04:21:05.332Z,101405.59
2018-06-11T04:23:34.390Z,101410.41
2018-06-11T04:26:04.084Z,101412.54
2018-06-11T04:28:33.225Z,101405.00
2018-06-11T04:31:02.438Z,101398.45
2018-06-11T04:33:31.694Z,101401.06
2018-06-11T04:36:01.033Z,101394.67
2018-06-11T04:38:30.143Z,101404.62
2018-06-11T04:40:59.881Z,101404.23
2018-06-11T04:43:28.921Z,101404.70
2018-06-11T04:45:59.504Z,101400.48
2018-06-11T04:48:28.589Z,101403.54
2018-06-11T04:50:57.687Z,101404.78
2018-06-11T04:53:26.864Z,101402.30
2018-06-11T04:55:56.023Z,101403.26
2018-06-11T04:58:25.692Z,101401.31
2018-06-11T05:00:55.427Z,101411.77
2018-06-11T05:03:25.167Z,101407.51
2018-06-11T05:05:55.558Z,101397.48
2018-06-11T05:08:24.802Z,101403.87
2018-06-11T05:10:54.046Z,101409.45
2018-06-11T05:13:24.721Z,101403.09
2018-06-11T05:15:53.801Z,101407.16
2018-06-11T05:18:22.958Z,101404.58
2018-06-11T05:20:52.470Z,101398.51
2018-06-11T05:23:21.620Z,101394.64
2018-06-11T05:25:50.797Z,101400.99
2018-06-11T05:28:21.538Z,101397.70
2018-06-11T05:30:50.608Z,101400.81
2018-06-11T05:33:20.769Z,101401.67
2018-06-11T05:35:50.133Z,101404.81
2018-06-11T05:38:19.344Z,101410.08
2018-06-11T05:40:49.166Z,101414.68
2018-06-11T05:43:18.300Z,101416.03
2018-06-11T05:45:48.134Z,101417.30
2018-06-11T05:48:17.318Z,101423.86
2018-06-11T05:50:46.421Z,101411.52
2018-06-11T05:53:16.686Z,101418.95
2018-06-11T05:55:45.886Z,101418.73
2018-06-11T05:58:14.996Z,101416.12
2018-06-11T06:00:44.241Z,101420.84
2018-06-11T06:03:13.328Z,101417.95
2018-06-11T06:05:42.684Z,101426.16
2018-06-11T06:08:11.970Z,101422.38
2018-06-11T06:10:41.593Z,101428.86
2018-06-11T06:13:10.640Z,101422.86
2018-06-11T06:15:39.940Z,101429.13
2018-06-11T06:20:37.310Z,101434.92
2018-06-11T06:23:06.605Z,101430.11
2018-06-11T06:25:35.664Z,101445.16
2018-06-11T06:28:05.091Z,101443.89
2018-06-11T06:30:34.212Z,101447.58
2018-06-11T06:33:03.285Z,101450.55
2018-06-11T06:35:32.325Z,101449.08
2018-06-11T06:38:01.613Z,101453.48
2018-06-11T06:40:30.683Z,101446.73
2018-06-11T06:42:59.685Z,101458.32
2018-06-11T06:45:28.738Z,101459.77
2018-06-11T06:47:57.869Z,101455.28
2018-06-11T06:50:27.233Z,101448.75
2018-06-11T06:52:56.282Z,101440.05
2018-06-11T06:55:25.377Z,101440.90
2018-06-11T06:57:54.466Z,101430.34
2018-06-11T07:00:23.569Z,101439.47
2018-06-11T07:05:26.403Z,101436.46
2018-06-11T07:07:55.517Z,101427.61
2018-06-11T07:10:24.579Z,101422.20
2018-06-11T07:12:53.734Z,101431.21
2018-06-11T07:15:23.498Z,101424.70
2018-06-11T07:17:52.598Z,101420.38
2018-06-11T07:20:21.823Z,101429.22
2018-06-11T07:32:31.030Z,101421.17
2018-06-11T07:35:00.140Z,101413.90
2018-06-11T07:37:29.147Z,101417.42
2018-06-11T07:39:58.217Z,101419.87
2018-06-11T07:42:27.249Z,101416.11
2018-06-11T07:44:57.198Z,101420.87
2018-06-11T07:47:26.362Z,101421.67
2018-06-11T07:49:55.401Z,101429.36
2018-06-11T07:52:24.451Z,101422.30
2018-06-11T07:54:53.509Z,101425.94
2018-06-11T07:57:22.532Z,101424.03
2018-06-11T07:59:51.877Z,101430.77
2018-06-11T08:02:20.892Z,101428.05
2018-06-11T08:04:49.929Z,101437.17
2018-06-11T08:07:18.954Z,101430.58
2018-06-11T08:09:48.117Z,101430.14
2018-06-11T08:12:17.135Z,101420.52
2018-06-11T08:14:46.387Z,101426.81
2018-06-11T08:17:15.403Z,101420.75
2018-06-11T08:19:44.923Z,101413.34
2018-06-11T08:22:13.996Z,101400.93
2018-06-11T08:24:43.301Z,101407.23
2018-06-11T08:27:12.414Z,101415.70
2018-06-11T08:29:41.792Z,101412.59
2018-06-11T08:32:10.887Z,101406.92
2018-06-11T08:34:39.937Z,101404.59
2018-06-11T08:37:09.009Z,101412.35
2018-06-11T08:39:38.812Z,101401.47
2018-06-11T08:42:07.859Z,101405.94
2018-06-11T08:44:37.041Z,101402.11
2018-06-11T08:47:06.081Z,101408.64
2018-06-11T08:49:35.117Z,101408.52
2018-06-11T08:52:04.505Z,101412.84
2018-06-11T08:54:33.521Z,101410.50
2018-06-11T08:57:02.798Z,101411.66
2018-06-11T08:59:32.233Z,101412.44
2018-06-11T09:02:01.264Z,101412.90
2018-06-11T09:04:30.308Z,101417.03
2018-06-11T09:06:59.926Z,101408.05
2018-06-11T09:09:28.937Z,101413.60
2018-06-11T09:11:58.036Z,101418.80
2018-06-11T09:14:27.070Z,101417.80
2018-06-11T09:29:56.220Z,101417.80
2018-06-11T09:32:25.511Z,101413.22
2018-06-11T09:34:54.587Z,101416.56
2018-06-11T09:37:23.669Z,101417.92
2018-06-11T09:39:52.743Z,101418.42
2018-06-11T09:42:21.784Z,101411.12
2018-06-11T09:57:50.866Z,101424.09
2018-06-11T10:00:37.059Z,101414.11
2018-06-11T10:03:06.420Z,101415.31
2018-06-11T10:05:35.464Z,101411.50
2018-06-11T10:08:04.494Z,101411.61
2018-06-11T10:10:33.540Z,101416.08
2018-06-11T10:13:02.577Z,101415.92
2018-06-11T10:15:31.630Z,101418.53
2018-06-11T10:18:01.002Z,101422.72
2018-06-11T10:20:30.040Z,101416.55
2018-06-11T10:22:59.081Z,101417.16
2018-06-11T10:25:28.096Z,101411.10
2018-06-11T10:27:57.133Z,101409.74
2018-06-11T10:30:26.244Z,101399.13
2018-06-11T10:32:55.484Z,101403.54
2018-06-11T10:35:24.510Z,101397.88
2018-06-11T10:37:53.662Z,101397.86
2018-06-11T10:40:22.772Z,101390.08
2018-06-11T10:42:51.836Z,101387.38
2018-06-11T10:45:20.924Z,101384.62
2018-06-11T10:47:49.945Z,101383.59
2018-06-11T10:50:19.021Z,101393.63
2018-06-11T10:52:48.030Z,101387.09
2018-06-11T10:55:17.061Z,101383.58
2018-06-11T10:57:46.089Z,101384.38
2018-06-11T11:00:15.099Z,101377.05
2018-06-11T11:02:44.441Z,101379.03
2018-06-11T11:05:13.480Z,101372.48
2018-06-11T11:07:42.558Z,101380.00
2018-06-11T11:10:11.567Z,101367.14
2018-06-11T11:12:40.625Z,101370.97
2018-06-11T11:15:09.664Z,101374.95
2018-06-11T11:17:38.714Z,101357.02
2018-06-11T11:20:07.848Z,101364.27
2018-06-11T11:22:36.914Z,101368.73
2018-06-11T11:25:05.932Z,101354.85
2018-06-11T11:27:35.120Z,101346.75
2018-06-11T11:30:05.159Z,101351.38
2018-06-11T11:32:34.280Z,101349.60
2018-06-11T11:35:03.413Z,101356.06
2018-06-11T11:37:32.416Z,101349.00
2018-06-11T11:40:01.515Z,101350.80
2018-06-11T11:42:30.772Z,101344.03
2018-06-11T11:44:59.816Z,101323.20
2018-06-11T11:47:28.870Z,101331.05
2018-06-11T11:49:58.228Z,101333.73
2018-06-11T11:52:27.250Z,101335.56
2018-06-11T11:54:56.772Z,101328.75
2018-06-11T11:57:26.574Z,101324.11
2018-06-11T11:59:55.582Z,101318.23
2018-06-11T12:02:24.631Z,101311.30
2018-06-11T12:04:53.641Z,101309.69
2018-06-11T12:07:22.964Z,101299.52
2018-06-11T12:09:57.867Z,101308.96
2018-06-11T12:12:32.565Z,101299.00
2018-06-11T12:15:01.590Z,101301.89
2018-06-11T12:17:36.152Z,101293.45
2018-06-11T12:20:05.212Z,101292.36
2018-06-11T12:22:34.222Z,101290.22
2018-06-11T12:25:04.154Z,101290.62
2018-06-11T12:27:33.171Z,101282.43
2018-06-11T12:30:02.165Z,101278.86
2018-06-11T12:32:31.188Z,101275.55
2018-06-11T12:35:00.209Z,101277.84
2018-06-11T12:37:29.274Z,101276.47
2018-06-11T12:39:58.300Z,101270.34
2018-06-11T12:42:32.908Z,101268.41
2018-06-11T12:45:01.921Z,101264.52
2018-06-11T12:47:31.036Z,101260.38
2018-06-11T12:50:00.052Z,101254.92
2018-06-11T12:52:29.065Z,101238.57
2018-06-11T12:54:58.128Z,101252.33
2018-06-11T12:57:27.142Z,101259.84
2018-06-11T12:59:56.213Z,101255.88
2018-06-11T13:02:25.249Z,101248.43
2018-06-11T13:04:54.541Z,101246.95
2018-06-11T13:07:23.589Z,101250.20
2018-06-11T13:09:52.629Z,101240.07
2018-06-11T13:12:21.665Z,101238.59
2018-06-11T13:14:50.705Z,101228.14
2018-06-11T13:17:25.401Z,101220.75
2018-06-11T13:19:55.076Z,101228.34
2018-06-11T13:22:24.107Z,101236.39
2018-06-11T13:24:53.143Z,101208.02
2018-06-11T13:27:22.181Z,101198.73
2018-06-11T13:29:51.229Z,101209.00
2018-06-11T13:32:20.292Z,101214.98
2018-06-11T13:34:49.369Z,101209.00
2018-06-11T13:37:18.409Z,101211.79
2018-06-11T13:39:47.457Z,101218.48
2018-06-11T13:42:16.495Z,101205.11
2018-06-11T13:44:45.566Z,101190.45
2018-06-11T13:47:14.618Z,101200.44
2018-06-11T13:49:43.652Z,101202.69
2018-06-11T13:52:12.668Z,101201.66
2018-06-11T13:54:41.697Z,101199.96
2018-06-11T13:57:10.753Z,101203.82
2018-06-11T13:59:39.939Z,101209.50
2018-06-11T14:02:08.965Z,101198.36
2018-06-11T14:04:38.018Z,101195.80
2018-06-11T14:07:08.007Z,101197.10
2018-06-11T14:09:37.004Z,101187.05
2018-06-11T14:12:06.101Z,101187.06
2018-06-11T14:14:35.133Z,101197.38
2018-06-11T14:17:09.713Z,101196.02
2018-06-11T14:19:38.781Z,101187.69
2018-06-11T14:22:07.813Z,101188.24
2018-06-11T14:24:36.867Z,101186.27
2018-06-11T14:27:05.913Z,101201.39
2018-06-11T14:29:35.045Z,101188.95
2018-06-11T14:32:04.146Z,101196.08
2018-06-11T14:34:33.283Z,101194.52
2018-06-11T14:37:02.337Z,101197.78
2018-06-11T14:39:31.864Z,101206.13
2018-06-11T14:42:00.910Z,101214.72
2018-06-11T14:44:29.956Z,101214.59
2018-06-11T14:46:59.011Z,101212.81
2018-06-11T14:49:28.035Z,101218.61
2018-06-11T14:51:57.056Z,101224.30
2018-06-11T14:54:26.123Z,101226.55
2018-06-11T14:56:55.248Z,101222.66
2018-06-11T14:59:24.354Z,101240.09
2018-06-11T15:01:53.671Z,101224.23
2018-06-11T15:04:22.697Z,101214.25
2018-06-11T15:06:51.737Z,101197.75
2018-06-11T15:09:20.927Z,101191.23
2018-06-11T15:11:49.974Z,101192.80
2018-06-11T15:14:19.478Z,101182.97
2018-06-11T15:16:48.537Z,101192.66
2018-06-11T15:19:17.600Z,101190.13
2018-06-11T15:21:46.639Z,101188.50
2018-06-11T15:24:15.709Z,101207.73
2018-06-11T15:26:44.821Z,101204.57
2018-06-11T15:29:13.903Z,101196.25
2018-06-11T15:31:42.918Z,101186.05
2018-06-11T15:34:11.952Z,101187.55
2018-06-11T15:36:41.035Z,101188.64
2018-06-11T15:39:10.070Z,101182.08
2018-06-11T15:41:39.163Z,101193.33
2018-06-11T15:44:08.241Z,101194.88
2018-06-11T15:46:37.741Z,101193.89
2018-06-11T15:49:06.793Z,101196.55
2018-06-11T15:51:35.901Z,101191.09
2018-06-11T15:54:04.983Z,101185.45
2018-06-11T15:56:34.036Z,101179.17
2018-06-11T15:59:03.340Z,101192.48
2018-06-11T16:01:32.397Z,101206.63
2018-06-11T16:04:01.476Z,101192.02
2018-06-11T16:06:30.501Z,101198.92
2018-06-11T16:08:59.830Z,101200.56
2018-06-11T16:11:28.863Z,101205.08
2018-06-11T16:13:57.928Z,101212.81
2018-06-11T16:16:26.956Z,101205.66
2018-06-11T16:18:56.048Z,101203.00
2018-06-11T16:21:25.324Z,101217.41
2018-06-11T16:23:54.638Z,101204.73
2018-06-11T16:26:23.687Z,101208.59
2018-06-11T16:28:52.812Z,101212.27
2018-06-11T16:31:21.853Z,101208.17
2018-06-11T16:33:50.968Z,101208.48
2018-06-11T16:36:20.640Z,101200.78
2018-06-11T16:38:49.703Z,101215.34
2018-06-11T16:41:18.752Z,101208.89
2018-06-11T16:43:48.088Z,101207.45
2018-06-11T16:46:17.447Z,101207.28
2018-06-11T16:48:47.171Z,101201.22
2018-06-11T16:51:21.818Z,101204.28
2018-06-11T16:53:51.000Z,101211.11
2018-06-11T16:56:20.117Z,101201.89
2018-06-11T16:58:49.292Z,101199.34
2018-06-11T17:01:20.090Z,101216.63
2018-06-11T17:03:49.318Z,101211.18
2018-06-11T17:06:18.949Z,101214.11
2018-06-11T17:08:48.145Z,101208.66
2018-06-11T17:11:17.414Z,101204.70
2018-06-11T17:13:46.452Z,101201.57
2018-06-11T17:16:15.525Z,101205.42
2018-06-11T17:18:44.611Z,101214.05
2018-06-11T17:21:13.697Z,101208.02
2018-06-11T17:23:42.796Z,101210.67
2018-06-11T17:26:11.918Z,101204.05
2018-06-11T17:28:41.172Z,101208.87
2018-06-11T17:31:10.782Z,101215.20
2018-06-11T17:33:39.836Z,101211.66
2018-06-11T17:36:09.059Z,101211.41
2018-06-11T17:38:43.839Z,101212.97
2018-06-11T17:41:13.684Z,101211.60
2018-06-11T17:43:43.431Z,101213.79
2018-06-11T17:46:12.947Z,101206.73
2018-06-11T17:48:42.002Z,101201.21
2018-06-11T17:51:11.037Z,101209.31
2018-06-11T17:53:40.121Z,101208.48
2018-06-11T17:56:09.308Z,101216.66
2018-06-11T17:58:39.782Z,101210.94
2018-06-11T18:01:08.841Z,101204.05
2018-06-11T18:03:37.930Z,101220.53
2018-06-11T18:06:07.456Z,101217.97
2018-06-11T18:08:36.593Z,101212.89
2018-06-11T18:11:06.269Z,101218.53
2018-06-11T18:13:35.408Z,101221.83
2018-06-11T18:16:04.551Z,101207.82
2018-06-11T18:18:33.653Z,101217.94
2018-06-11T18:21:02.661Z,101217.06
2018-06-11T18:23:31.817Z,101216.91
2018-06-11T18:26:00.867Z,101206.76
2018-06-11T18:28:30.758Z,101209.31
2018-06-11T18:30:59.792Z,101207.75
2018-06-11T18:33:28.857Z,101209.34
2018-06-11T18:35:58.279Z,101213.80
2018-06-11T18:38:27.491Z,101215.53
2018-06-11T18:40:56.589Z,101220.66
2018-06-11T18:43:25.718Z,101215.58
2018-06-11T18:45:54.798Z,101209.80
2018-06-11T18:48:24.209Z,101210.31
2018-06-11T18:50:59.205Z,101216.27
2018-06-11T18:53:33.720Z,101218.31
2018-06-11T18:56:02.822Z,101224.78
2018-06-11T18:58:32.384Z,101214.91
2018-06-11T19:01:01.525Z,101221.98
2018-06-11T19:03:30.771Z,101223.00
2018-06-11T19:06:00.020Z,101222.06
2018-06-11T19:08:30.459Z,101215.09
2018-06-11T19:11:05.280Z,101222.23
2018-06-11T19:13:34.502Z,101231.05
2018-06-11T19:16:03.861Z,101220.66
2018-06-11T19:18:32.953Z,101219.89
2018-06-11T19:21:02.353Z,101220.87
2018-06-11T19:23:32.169Z,101222.32
2018-06-11T19:26:01.483Z,101232.99
2018-06-11T19:28:30.823Z,101221.51
2018-06-11T19:30:59.909Z,101222.91
2018-06-11T19:33:28.969Z,101226.55
2018-06-11T19:35:58.030Z,101230.03
2018-06-11T19:38:27.201Z,101225.05
2018-06-11T19:40:56.290Z,101239.88
2018-06-11T19:43:25.409Z,101240.36
2018-06-11T19:45:54.532Z,101235.30
2018-06-11T19:48:23.606Z,101227.64
2018-06-11T19:50:52.854Z,101246.70
2018-06-11T19:53:21.857Z,101251.86
2018-06-11T20:08:51.840Z,101271.36
2018-06-11T20:11:26.489Z,101275.94
2018-06-11T20:14:01.085Z,101282.77
2018-06-11T20:16:30.155Z,101283.12
2018-06-11T20:18:59.252Z,101285.70
2018-06-11T20:21:28.317Z,101293.88
2018-06-11T20:23:58.367Z,101288.31
2018-06-11T20:26:28.033Z,101291.88
2018-06-11T20:28:58.238Z,101287.20
2018-06-11T20:31:27.402Z,101289.45
2018-06-11T20:33:56.576Z,101290.30
2018-06-11T20:36:25.642Z,101289.05
2018-06-11T20:38:55.663Z,101296.58
2018-06-11T20:41:24.697Z,101297.92
2018-06-11T20:43:54.684Z,101304.71
2018-06-11T20:46:23.784Z,101310.70
2018-06-11T20:48:52.890Z,101304.86
2018-06-11T20:51:21.998Z,101296.50
2018-06-11T20:53:51.214Z,101304.28
2018-06-11T20:56:20.294Z,101307.94
2018-06-11T21:11:49.443Z,101308.58
2018-06-11T21:14:18.567Z,101313.34
2018-06-11T21:16:52.656Z,101317.28
2018-06-11T21:19:21.716Z,101319.30
2018-06-11T21:21:50.835Z,101323.11
2018-06-11T21:24:20.317Z,101317.33
2018-06-11T21:26:49.381Z,101318.52
2018-06-11T21:29:18.504Z,101316.06
2018-06-11T21:31:47.728Z,101318.77
2018-06-11T21:34:16.772Z,101320.41
2018-06-11T21:36:45.809Z,101323.20
2018-06-11T21:39:14.840Z,101318.70
2018-06-11T21:41:43.866Z,101312.30
2018-06-11T21:44:13.500Z,101313.66
2018-06-11T21:46:42.540Z,101323.09
2018-06-11T21:49:11.674Z,101320.56
2018-06-11T21:51:40.780Z,101324.41
2018-06-11T21:54:09.834Z,101324.03
2018-06-11T21:56:38.900Z,101321.59
2018-06-11T21:59:07.996Z,101320.30
2018-06-11T22:01:37.090Z,101311.92
2018-06-11T22:04:07.237Z,101318.55
2018-06-11T22:06:36.214Z,101314.78
2018-06-11T22:09:08.747Z,101311.25
2018-06-11T22:11:38.848Z,101309.53
2018-06-11T22:14:07.890Z,101313.21
2018-06-11T22:16:37.670Z,101319.10
2018-06-11T22:19:06.808Z,101318.39
2018-06-11T22:21:36.286Z,101317.30
2018-06-11T22:24:05.429Z,101329.67
2018-06-11T22:26:34.514Z,101323.61
2018-06-11T22:29:03.543Z,101322.82
2018-06-11T22:31:32.579Z,101320.64
2018-06-11T22:34:01.821Z,101321.07
2018-06-11T22:36:31.563Z,101316.41
2018-06-11T22:39:00.614Z,101313.77
2018-06-11T22:41:29.654Z,101317.54
2018-06-11T22:43:58.637Z,101317.44
2018-06-11T22:59:28.576Z,101312.58
2018-06-11T23:01:57.828Z,101309.53
2018-06-11T23:04:26.954Z,101305.98
2018-06-11T23:06:56.036Z,101305.09
2018-06-11T23:09:25.082Z,101302.39
2018-06-11T23:11:54.116Z,101302.75
2018-06-11T23:14:23.158Z,101297.33
2018-06-11T23:16:52.215Z,101296.83
2018-06-11T23:19:21.251Z,101293.52
2018-06-11T23:21:50.325Z,101291.13
2018-06-11T23:24:19.979Z,101294.83
2018-06-11T23:26:49.492Z,101302.45
2018-06-11T23:29:18.539Z,101303.34
2018-06-11T23:31:47.633Z,101303.06
2018-06-11T23:34:16.677Z,101301.45
2018-06-11T23:36:45.686Z,101307.30
2018-06-11T23:39:14.886Z,101296.64
2018-06-11T23:41:44.662Z,101296.31
2018-06-11T23:44:13.837Z,101299.06
2018-06-11T23:46:42.882Z,101295.70
2018-06-11T23:49:11.948Z,101289.66
2018-06-11T23:51:41.024Z,101290.48
2018-06-11T23:54:10.239Z,101291.84
2018-06-11T23:56:39.301Z,101288.34
2018-06-11T23:59:08.421Z,101298.89
